sensor_id;sensor_type;location;lat;lon;timestamp;P1;durP1;ratioP1;P2;durP2;ratioP2
32469;SDS011;18925;48.356;10.864;2023-01-09T00:00:12;40.35;;;26.60;;
32469;SDS011;18925;48.356;10.864;2023-01-09T00:00:45;44.80;;;25.42;;
32469;SDS011;18925;48.356;10.864;2023-01-09T00:01:20;36.88;;;25.83;;
32469;SDS011;18925;48.356;10.864;2023-01-09T00:01:56;40.33;;;25.00;;
32469;SDS011;18925;48.356;10.864;2023-01-09T00:02:27;39.00;;;25.35;;
32469;SDS011;18925;48.356;10.864;2023-01-09T00:02:58;42.08;;;25.35;;
32469;SDS011;18925;48.356;10.864;2023-01-09T00:03:28;38.05;;;25.75;;
32469;SDS011;18925;48.356;10.864;2023-01-09T00:03:59;45.40;;;27.88;;
32469;SDS011;18925;48.356;10.864;2023-01-09T00:04:30;42.90;;;25.60;;
32469;SDS011;18925;48.356;10.864;2023-01-09T00:05:01;40.03;;;24.80;;
32469;SDS011;18925;48.356;10.864;2023-01-09T00:05:32;41.65;;;26.38;;
32469;SDS011;18925;48.356;10.864;2023-01-09T00:06:03;40.92;;;25.20;;
32469;SDS011;18925;48.356;10.864;2023-01-09T00:06:33;41.67;;;26.15;;
32469;SDS011;18925;48.356;10.864;2023-01-09T00:07:04;42.67;;;24.65;;
32469;SDS011;18925;48.356;10.864;2023-01-09T00:07:35;37.47;;;24.30;;
32469;SDS011;18925;48.356;10.864;2023-01-09T00:08:06;43.00;;;25.00;;
32469;SDS011;18925;48.356;10.864;2023-01-09T00:08:36;42.13;;;26.38;;
32469;SDS011;18925;48.356;10.864;2023-01-09T00:09:07;40.80;;;24.90;;
32469;SDS011;18925;48.356;10.864;2023-01-09T00:09:39;39.80;;;24.98;;
32469;SDS011;18925;48.356;10.864;2023-01-09T00:10:10;37.78;;;23.42;;
32469;SDS011;18925;48.356;10.864;2023-01-09T00:10:41;38.42;;;23.42;;
32469;SDS011;18925;48.356;10.864;2023-01-09T00:11:12;39.53;;;23.70;;
32469;SDS011;18925;48.356;10.864;2023-01-09T00:11:42;36.00;;;23.30;;
32469;SDS011;18925;48.356;10.864;2023-01-09T00:12:13;31.30;;;22.67;;
32469;SDS011;18925;48.356;10.864;2023-01-09T00:12:44;34.83;;;22.13;;
32469;SDS011;18925;48.356;10.864;2023-01-09T00:13:14;38.22;;;23.52;;
32469;SDS011;18925;48.356;10.864;2023-01-09T00:13:47;37.40;;;23.98;;
32469;SDS011;18925;48.356;10.864;2023-01-09T00:14:18;42.60;;;23.55;;
32469;SDS011;18925;48.356;10.864;2023-01-09T00:14:48;41.00;;;23.48;;
32469;SDS011;18925;48.356;10.864;2023-01-09T00:15:19;37.28;;;22.67;;
32469;SDS011;18925;48.356;10.864;2023-01-09T00:15:50;39.90;;;25.10;;
32469;SDS011;18925;48.356;10.864;2023-01-09T00:16:20;44.22;;;25.98;;
32469;SDS011;18925;48.356;10.864;2023-01-09T00:16:52;38.38;;;24.15;;
32469;SDS011;18925;48.356;10.864;2023-01-09T00:17:24;36.88;;;23.52;;
32469;SDS011;18925;48.356;10.864;2023-01-09T00:17:54;43.17;;;26.08;;
32469;SDS011;18925;48.356;10.864;2023-01-09T00:18:25;40.50;;;24.58;;
32469;SDS011;18925;48.356;10.864;2023-01-09T00:18:56;38.35;;;23.35;;
32469;SDS011;18925;48.356;10.864;2023-01-09T00:19:26;43.47;;;24.73;;
32469;SDS011;18925;48.356;10.864;2023-01-09T00:19:57;45.30;;;25.38;;
32469;SDS011;18925;48.356;10.864;2023-01-09T00:20:28;36.22;;;23.48;;
32469;SDS011;18925;48.356;10.864;2023-01-09T00:20:59;43.08;;;24.75;;
32469;SDS011;18925;48.356;10.864;2023-01-09T00:21:30;35.97;;;22.77;;
32469;SDS011;18925;48.356;10.864;2023-01-09T00:22:01;34.63;;;22.92;;
32469;SDS011;18925;48.356;10.864;2023-01-09T00:22:32;37.45;;;23.13;;
32469;SDS011;18925;48.356;10.864;2023-01-09T00:23:02;39.83;;;23.33;;
32469;SDS011;18925;48.356;10.864;2023-01-09T00:23:33;36.63;;;23.55;;
32469;SDS011;18925;48.356;10.864;2023-01-09T00:24:04;36.38;;;22.55;;
32469;SDS011;18925;48.356;10.864;2023-01-09T00:24:35;42.78;;;24.20;;
32469;SDS011;18925;48.356;10.864;2023-01-09T00:25:06;40.83;;;25.77;;
32469;SDS011;18925;48.356;10.864;2023-01-09T00:25:37;38.83;;;25.88;;
32469;SDS011;18925;48.356;10.864;2023-01-09T00:26:09;40.17;;;24.75;;
32469;SDS011;18925;48.356;10.864;2023-01-09T00:26:45;41.80;;;24.05;;
32469;SDS011;18925;48.356;10.864;2023-01-09T00:27:16;38.38;;;23.95;;
32469;SDS011;18925;48.356;10.864;2023-01-09T00:27:47;39.00;;;23.52;;
32469;SDS011;18925;48.356;10.864;2023-01-09T00:28:17;33.05;;;22.42;;
32469;SDS011;18925;48.356;10.864;2023-01-09T00:28:48;37.85;;;23.85;;
32469;SDS011;18925;48.356;10.864;2023-01-09T00:29:20;38.28;;;22.90;;
32469;SDS011;18925;48.356;10.864;2023-01-09T00:29:51;37.50;;;22.60;;
32469;SDS011;18925;48.356;10.864;2023-01-09T00:30:22;42.85;;;24.60;;
32469;SDS011;18925;48.356;10.864;2023-01-09T00:30:56;39.95;;;24.38;;
32469;SDS011;18925;48.356;10.864;2023-01-09T00:31:28;41.58;;;23.98;;
32469;SDS011;18925;48.356;10.864;2023-01-09T00:31:59;37.30;;;24.05;;
32469;SDS011;18925;48.356;10.864;2023-01-09T00:32:30;38.55;;;25.50;;
32469;SDS011;18925;48.356;10.864;2023-01-09T00:33:01;42.72;;;25.25;;
32469;SDS011;18925;48.356;10.864;2023-01-09T00:33:33;35.90;;;24.35;;
32469;SDS011;18925;48.356;10.864;2023-01-09T00:34:06;38.10;;;23.25;;
32469;SDS011;18925;48.356;10.864;2023-01-09T00:34:39;37.47;;;23.30;;
32469;SDS011;18925;48.356;10.864;2023-01-09T00:35:13;38.97;;;23.55;;
32469;SDS011;18925;48.356;10.864;2023-01-09T00:35:46;31.90;;;21.25;;
32469;SDS011;18925;48.356;10.864;2023-01-09T00:36:16;35.85;;;21.10;;
32469;SDS011;18925;48.356;10.864;2023-01-09T00:36:47;33.13;;;19.83;;
32469;SDS011;18925;48.356;10.864;2023-01-09T00:37:18;33.55;;;20.10;;
32469;SDS011;18925;48.356;10.864;2023-01-09T00:37:48;34.78;;;20.50;;
32469;SDS011;18925;48.356;10.864;2023-01-09T00:38:19;29.42;;;19.98;;
32469;SDS011;18925;48.356;10.864;2023-01-09T00:38:50;32.50;;;19.80;;
32469;SDS011;18925;48.356;10.864;2023-01-09T00:39:21;31.48;;;20.45;;
32469;SDS011;18925;48.356;10.864;2023-01-09T00:39:52;30.35;;;20.08;;
32469;SDS011;18925;48.356;10.864;2023-01-09T00:40:22;30.25;;;20.13;;
32469;SDS011;18925;48.356;10.864;2023-01-09T00:40:53;33.80;;;19.52;;
32469;SDS011;18925;48.356;10.864;2023-01-09T00:41:31;28.48;;;18.58;;
32469;SDS011;18925;48.356;10.864;2023-01-09T00:42:12;38.60;;;20.63;;
32469;SDS011;18925;48.356;10.864;2023-01-09T00:42:50;33.60;;;18.38;;
32469;SDS011;18925;48.356;10.864;2023-01-09T00:43:26;30.98;;;20.05;;
32469;SDS011;18925;48.356;10.864;2023-01-09T00:44:06;28.90;;;18.00;;
32469;SDS011;18925;48.356;10.864;2023-01-09T00:44:44;27.35;;;18.80;;
32469;SDS011;18925;48.356;10.864;2023-01-09T00:45:19;31.27;;;19.08;;
32469;SDS011;18925;48.356;10.864;2023-01-09T00:45:57;32.50;;;18.67;;
32469;SDS011;18925;48.356;10.864;2023-01-09T00:46:32;27.00;;;17.20;;
32469;SDS011;18925;48.356;10.864;2023-01-09T00:47:06;26.45;;;17.23;;
32469;SDS011;18925;48.356;10.864;2023-01-09T00:47:45;29.27;;;17.20;;
32469;SDS011;18925;48.356;10.864;2023-01-09T00:48:20;25.48;;;17.75;;
32469;SDS011;18925;48.356;10.864;2023-01-09T00:48:55;27.20;;;16.38;;
32469;SDS011;18925;48.356;10.864;2023-01-09T00:49:28;25.20;;;17.52;;
32469;SDS011;18925;48.356;10.864;2023-01-09T00:50:02;26.90;;;17.05;;
32469;SDS011;18925;48.356;10.864;2023-01-09T00:50:37;28.40;;;18.38;;
32469;SDS011;18925;48.356;10.864;2023-01-09T00:51:07;24.63;;;16.90;;
32469;SDS011;18925;48.356;10.864;2023-01-09T00:51:38;25.35;;;17.00;;
32469;SDS011;18925;48.356;10.864;2023-01-09T00:52:10;26.25;;;15.85;;
32469;SDS011;18925;48.356;10.864;2023-01-09T00:52:42;23.80;;;15.32;;
32469;SDS011;18925;48.356;10.864;2023-01-09T00:53:14;24.67;;;16.10;;
32469;SDS011;18925;48.356;10.864;2023-01-09T00:53:47;25.08;;;16.23;;
32469;SDS011;18925;48.356;10.864;2023-01-09T00:54:19;28.40;;;16.25;;
32469;SDS011;18925;48.356;10.864;2023-01-09T00:54:50;29.25;;;16.27;;
32469;SDS011;18925;48.356;10.864;2023-01-09T00:55:21;31.48;;;16.85;;
32469;SDS011;18925;48.356;10.864;2023-01-09T00:55:52;20.88;;;14.68;;
32469;SDS011;18925;48.356;10.864;2023-01-09T00:56:24;26.13;;;16.35;;
32469;SDS011;18925;48.356;10.864;2023-01-09T00:56:55;27.85;;;16.90;;
32469;SDS011;18925;48.356;10.864;2023-01-09T00:57:26;22.23;;;15.52;;
32469;SDS011;18925;48.356;10.864;2023-01-09T00:57:56;26.60;;;16.00;;
32469;SDS011;18925;48.356;10.864;2023-01-09T00:58:27;27.83;;;16.55;;
32469;SDS011;18925;48.356;10.864;2023-01-09T00:58:58;24.27;;;16.15;;
32469;SDS011;18925;48.356;10.864;2023-01-09T00:59:29;28.05;;;15.45;;
32469;SDS011;18925;48.356;10.864;2023-01-09T00:59:59;26.15;;;16.92;;
32469;SDS011;18925;48.356;10.864;2023-01-09T01:00:31;26.48;;;17.38;;
32469;SDS011;18925;48.356;10.864;2023-01-09T01:01:01;24.77;;;16.52;;
32469;SDS011;18925;48.356;10.864;2023-01-09T01:01:32;25.65;;;17.10;;
32469;SDS011;18925;48.356;10.864;2023-01-09T01:02:03;36.90;;;16.95;;
32469;SDS011;18925;48.356;10.864;2023-01-09T01:02:33;22.98;;;15.40;;
32469;SDS011;18925;48.356;10.864;2023-01-09T01:03:04;24.33;;;16.10;;
32469;SDS011;18925;48.356;10.864;2023-01-09T01:03:35;23.38;;;16.25;;
32469;SDS011;18925;48.356;10.864;2023-01-09T01:04:05;28.33;;;16.08;;
32469;SDS011;18925;48.356;10.864;2023-01-09T01:04:54;29.90;;;17.75;;
32469;SDS011;18925;48.356;10.864;2023-01-09T01:05:44;27.95;;;16.83;;
32469;SDS011;18925;48.356;10.864;2023-01-09T01:06:33;24.48;;;16.30;;
32469;SDS011;18925;48.356;10.864;2023-01-09T01:07:22;25.77;;;15.13;;
32469;SDS011;18925;48.356;10.864;2023-01-09T01:08:14;24.63;;;15.10;;
32469;SDS011;18925;48.356;10.864;2023-01-09T01:08:46;25.45;;;15.52;;
32469;SDS011;18925;48.356;10.864;2023-01-09T01:09:16;29.90;;;17.02;;
32469;SDS011;18925;48.356;10.864;2023-01-09T01:09:47;26.25;;;16.10;;
32469;SDS011;18925;48.356;10.864;2023-01-09T01:10:19;27.98;;;16.55;;
32469;SDS011;18925;48.356;10.864;2023-01-09T01:10:51;24.00;;;15.40;;
32469;SDS011;18925;48.356;10.864;2023-01-09T01:11:22;23.42;;;14.88;;
32469;SDS011;18925;48.356;10.864;2023-01-09T01:11:53;20.00;;;13.85;;
32469;SDS011;18925;48.356;10.864;2023-01-09T01:12:23;23.05;;;14.55;;
32469;SDS011;18925;48.356;10.864;2023-01-09T01:12:54;23.45;;;15.32;;
32469;SDS011;18925;48.356;10.864;2023-01-09T01:13:25;22.38;;;15.27;;
32469;SDS011;18925;48.356;10.864;2023-01-09T01:13:55;26.17;;;15.90;;
32469;SDS011;18925;48.356;10.864;2023-01-09T01:14:27;22.92;;;15.00;;
32469;SDS011;18925;48.356;10.864;2023-01-09T01:14:57;26.92;;;15.52;;
32469;SDS011;18925;48.356;10.864;2023-01-09T01:15:28;25.95;;;14.23;;
32469;SDS011;18925;48.356;10.864;2023-01-09T01:15:59;23.38;;;14.27;;
32469;SDS011;18925;48.356;10.864;2023-01-09T01:16:33;20.90;;;14.10;;
32469;SDS011;18925;48.356;10.864;2023-01-09T01:17:04;22.58;;;14.77;;
32469;SDS011;18925;48.356;10.864;2023-01-09T01:17:36;20.60;;;14.70;;
32469;SDS011;18925;48.356;10.864;2023-01-09T01:18:09;33.20;;;15.30;;
32469;SDS011;18925;48.356;10.864;2023-01-09T01:18:40;27.70;;;14.95;;
32469;SDS011;18925;48.356;10.864;2023-01-09T01:19:11;26.75;;;14.07;;
32469;SDS011;18925;48.356;10.864;2023-01-09T01:19:41;21.80;;;13.48;;
32469;SDS011;18925;48.356;10.864;2023-01-09T01:20:13;22.30;;;14.70;;
32469;SDS011;18925;48.356;10.864;2023-01-09T01:20:47;24.67;;;13.68;;
32469;SDS011;18925;48.356;10.864;2023-01-09T01:21:18;23.58;;;14.82;;
32469;SDS011;18925;48.356;10.864;2023-01-09T01:21:48;22.85;;;15.23;;
32469;SDS011;18925;48.356;10.864;2023-01-09T01:22:19;20.50;;;14.13;;
32469;SDS011;18925;48.356;10.864;2023-01-09T01:22:50;22.38;;;15.25;;
32469;SDS011;18925;48.356;10.864;2023-01-09T01:23:20;27.08;;;15.57;;
32469;SDS011;18925;48.356;10.864;2023-01-09T01:23:51;23.35;;;15.75;;
32469;SDS011;18925;48.356;10.864;2023-01-09T01:24:21;22.83;;;15.52;;
32469;SDS011;18925;48.356;10.864;2023-01-09T01:24:52;26.55;;;16.60;;
32469;SDS011;18925;48.356;10.864;2023-01-09T01:25:23;26.48;;;16.48;;
32469;SDS011;18925;48.356;10.864;2023-01-09T01:25:54;22.63;;;15.25;;
32469;SDS011;18925;48.356;10.864;2023-01-09T01:26:24;23.20;;;15.15;;
32469;SDS011;18925;48.356;10.864;2023-01-09T01:26:55;29.35;;;15.75;;
32469;SDS011;18925;48.356;10.864;2023-01-09T01:27:26;20.38;;;15.02;;
32469;SDS011;18925;48.356;10.864;2023-01-09T01:27:57;24.90;;;15.98;;
32469;SDS011;18925;48.356;10.864;2023-01-09T01:28:28;27.10;;;16.85;;
32469;SDS011;18925;48.356;10.864;2023-01-09T01:28:58;24.88;;;16.67;;
32469;SDS011;18925;48.356;10.864;2023-01-09T01:29:29;24.00;;;16.13;;
32469;SDS011;18925;48.356;10.864;2023-01-09T01:30:00;22.42;;;17.13;;
32469;SDS011;18925;48.356;10.864;2023-01-09T01:30:30;26.42;;;15.15;;
32469;SDS011;18925;48.356;10.864;2023-01-09T01:31:01;25.80;;;17.13;;
32469;SDS011;18925;48.356;10.864;2023-01-09T01:31:32;25.70;;;16.30;;
32469;SDS011;18925;48.356;10.864;2023-01-09T01:32:03;24.48;;;15.85;;
32469;SDS011;18925;48.356;10.864;2023-01-09T01:32:34;23.73;;;15.85;;
32469;SDS011;18925;48.356;10.864;2023-01-09T01:33:05;24.45;;;15.35;;
32469;SDS011;18925;48.356;10.864;2023-01-09T01:33:36;26.35;;;16.35;;
32469;SDS011;18925;48.356;10.864;2023-01-09T01:34:07;28.95;;;17.33;;
32469;SDS011;18925;48.356;10.864;2023-01-09T01:34:37;29.15;;;17.50;;
32469;SDS011;18925;48.356;10.864;2023-01-09T01:35:08;26.88;;;16.05;;
32469;SDS011;18925;48.356;10.864;2023-01-09T01:35:40;29.05;;;16.95;;
32469;SDS011;18925;48.356;10.864;2023-01-09T01:36:11;26.33;;;15.95;;
32469;SDS011;18925;48.356;10.864;2023-01-09T01:36:41;21.88;;;14.88;;
32469;SDS011;18925;48.356;10.864;2023-01-09T01:37:12;22.55;;;14.18;;
32469;SDS011;18925;48.356;10.864;2023-01-09T01:37:43;25.02;;;15.68;;
32469;SDS011;18925;48.356;10.864;2023-01-09T01:38:13;25.67;;;16.17;;
32469;SDS011;18925;48.356;10.864;2023-01-09T01:38:44;24.20;;;15.15;;
32469;SDS011;18925;48.356;10.864;2023-01-09T01:39:15;24.60;;;15.35;;
32469;SDS011;18925;48.356;10.864;2023-01-09T01:39:46;23.05;;;15.65;;
32469;SDS011;18925;48.356;10.864;2023-01-09T01:40:17;25.20;;;15.50;;
32469;SDS011;18925;48.356;10.864;2023-01-09T01:40:51;25.90;;;15.30;;
32469;SDS011;18925;48.356;10.864;2023-01-09T01:41:22;23.15;;;15.18;;
32469;SDS011;18925;48.356;10.864;2023-01-09T01:41:59;30.38;;;15.85;;
32469;SDS011;18925;48.356;10.864;2023-01-09T01:42:32;27.20;;;15.70;;
32469;SDS011;18925;48.356;10.864;2023-01-09T01:43:03;26.73;;;15.82;;
32469;SDS011;18925;48.356;10.864;2023-01-09T01:43:53;25.38;;;15.95;;
32469;SDS011;18925;48.356;10.864;2023-01-09T01:45:36;30.00;;;14.80;;
32469;SDS011;18925;48.356;10.864;2023-01-09T01:46:09;22.95;;;13.85;;
32469;SDS011;18925;48.356;10.864;2023-01-09T01:46:40;26.98;;;14.52;;
32469;SDS011;18925;48.356;10.864;2023-01-09T01:47:11;24.63;;;14.98;;
32469;SDS011;18925;48.356;10.864;2023-01-09T01:48:03;24.92;;;15.40;;
32469;SDS011;18925;48.356;10.864;2023-01-09T01:48:40;27.40;;;16.75;;
32469;SDS011;18925;48.356;10.864;2023-01-09T01:49:12;22.60;;;15.23;;
32469;SDS011;18925;48.356;10.864;2023-01-09T01:49:49;24.80;;;14.75;;
32469;SDS011;18925;48.356;10.864;2023-01-09T01:50:28;21.85;;;14.32;;
32469;SDS011;18925;48.356;10.864;2023-01-09T01:51:07;25.88;;;15.95;;
32469;SDS011;18925;48.356;10.864;2023-01-09T01:51:40;26.33;;;14.65;;
32469;SDS011;18925;48.356;10.864;2023-01-09T01:52:14;22.98;;;14.18;;
32469;SDS011;18925;48.356;10.864;2023-01-09T01:52:51;23.08;;;14.20;;
32469;SDS011;18925;48.356;10.864;2023-01-09T01:53:47;23.90;;;14.88;;
32469;SDS011;18925;48.356;10.864;2023-01-09T01:54:23;23.85;;;15.30;;
32469;SDS011;18925;48.356;10.864;2023-01-09T01:54:57;23.42;;;15.80;;
32469;SDS011;18925;48.356;10.864;2023-01-09T01:55:28;27.30;;;16.45;;
32469;SDS011;18925;48.356;10.864;2023-01-09T01:56:09;24.85;;;16.35;;
32469;SDS011;18925;48.356;10.864;2023-01-09T01:56:54;25.75;;;16.23;;
32469;SDS011;18925;48.356;10.864;2023-01-09T01:57:30;28.27;;;15.95;;
32469;SDS011;18925;48.356;10.864;2023-01-09T01:58:03;22.10;;;15.45;;
32469;SDS011;18925;48.356;10.864;2023-01-09T01:58:37;22.88;;;15.05;;
32469;SDS011;18925;48.356;10.864;2023-01-09T01:59:17;25.85;;;16.05;;
32469;SDS011;18925;48.356;10.864;2023-01-09T01:59:54;27.67;;;16.75;;
32469;SDS011;18925;48.356;10.864;2023-01-09T02:00:29;23.88;;;15.35;;
32469;SDS011;18925;48.356;10.864;2023-01-09T02:01:02;31.70;;;17.17;;
32469;SDS011;18925;48.356;10.864;2023-01-09T02:01:34;23.73;;;15.55;;
32469;SDS011;18925;48.356;10.864;2023-01-09T02:02:10;27.00;;;16.48;;
32469;SDS011;18925;48.356;10.864;2023-01-09T02:02:40;28.23;;;16.55;;
32469;SDS011;18925;48.356;10.864;2023-01-09T02:03:16;25.75;;;15.65;;
32469;SDS011;18925;48.356;10.864;2023-01-09T02:03:49;21.95;;;14.95;;
32469;SDS011;18925;48.356;10.864;2023-01-09T02:04:22;21.00;;;14.85;;
32469;SDS011;18925;48.356;10.864;2023-01-09T02:04:53;29.27;;;15.35;;
32469;SDS011;18925;48.356;10.864;2023-01-09T02:05:26;26.23;;;16.65;;
32469;SDS011;18925;48.356;10.864;2023-01-09T02:05:57;27.77;;;15.98;;
32469;SDS011;18925;48.356;10.864;2023-01-09T02:06:28;22.13;;;15.27;;
32469;SDS011;18925;48.356;10.864;2023-01-09T02:07:03;23.45;;;15.13;;
32469;SDS011;18925;48.356;10.864;2023-01-09T02:07:38;20.67;;;14.68;;
32469;SDS011;18925;48.356;10.864;2023-01-09T02:08:08;21.00;;;15.05;;
32469;SDS011;18925;48.356;10.864;2023-01-09T02:08:40;26.90;;;16.20;;
32469;SDS011;18925;48.356;10.864;2023-01-09T02:09:11;24.60;;;15.13;;
32469;SDS011;18925;48.356;10.864;2023-01-09T02:09:44;26.20;;;16.95;;
32469;SDS011;18925;48.356;10.864;2023-01-09T02:10:15;23.55;;;15.73;;
32469;SDS011;18925;48.356;10.864;2023-01-09T02:10:46;20.67;;;15.35;;
32469;SDS011;18925;48.356;10.864;2023-01-09T02:11:18;26.52;;;15.40;;
32469;SDS011;18925;48.356;10.864;2023-01-09T02:11:50;24.02;;;16.02;;
32469;SDS011;18925;48.356;10.864;2023-01-09T02:12:25;23.92;;;15.68;;
32469;SDS011;18925;48.356;10.864;2023-01-09T02:12:57;25.20;;;15.35;;
32469;SDS011;18925;48.356;10.864;2023-01-09T02:13:28;23.20;;;15.55;;
32469;SDS011;18925;48.356;10.864;2023-01-09T02:14:01;22.95;;;14.80;;
32469;SDS011;18925;48.356;10.864;2023-01-09T02:14:32;25.25;;;16.40;;
32469;SDS011;18925;48.356;10.864;2023-01-09T02:15:06;25.70;;;16.45;;
32469;SDS011;18925;48.356;10.864;2023-01-09T02:15:46;28.65;;;17.75;;
32469;SDS011;18925;48.356;10.864;2023-01-09T02:16:49;25.50;;;16.38;;
32469;SDS011;18925;48.356;10.864;2023-01-09T02:18:26;26.65;;;17.25;;
32469;SDS011;18925;48.356;10.864;2023-01-09T02:26:16;17.42;;;12.38;;
32469;SDS011;18925;48.356;10.864;2023-01-09T02:30:28;29.88;;;18.33;;
32469;SDS011;18925;48.356;10.864;2023-01-09T02:31:43;33.45;;;18.67;;
32469;SDS011;18925;48.356;10.864;2023-01-09T02:32:44;34.35;;;19.63;;
32469;SDS011;18925;48.356;10.864;2023-01-09T02:35:31;30.20;;;18.98;;
32469;SDS011;18925;48.356;10.864;2023-01-09T02:36:09;32.67;;;19.38;;
32469;SDS011;18925;48.356;10.864;2023-01-09T02:36:57;33.00;;;19.90;;
32469;SDS011;18925;48.356;10.864;2023-01-09T02:38:26;35.95;;;19.95;;
32469;SDS011;18925;48.356;10.864;2023-01-09T02:42:20;36.92;;;21.02;;
32469;SDS011;18925;48.356;10.864;2023-01-09T02:42:51;34.67;;;20.88;;
32469;SDS011;18925;48.356;10.864;2023-01-09T02:43:24;34.53;;;22.25;;
32469;SDS011;18925;48.356;10.864;2023-01-09T02:44:46;26.08;;;15.35;;
32469;SDS011;18925;48.356;10.864;2023-01-09T02:45:16;32.70;;;22.02;;
32469;SDS011;18925;48.356;10.864;2023-01-09T02:45:47;33.40;;;20.58;;
32469;SDS011;18925;48.356;10.864;2023-01-09T02:46:18;30.08;;;20.55;;
32469;SDS011;18925;48.356;10.864;2023-01-09T02:47:01;32.90;;;20.73;;
32469;SDS011;18925;48.356;10.864;2023-01-09T02:47:35;32.42;;;21.30;;
32469;SDS011;18925;48.356;10.864;2023-01-09T02:48:11;31.33;;;21.40;;
32469;SDS011;18925;48.356;10.864;2023-01-09T02:48:41;39.33;;;23.10;;
32469;SDS011;18925;48.356;10.864;2023-01-09T02:49:14;31.38;;;21.50;;
32469;SDS011;18925;48.356;10.864;2023-01-09T02:49:49;32.63;;;22.65;;
32469;SDS011;18925;48.356;10.864;2023-01-09T02:50:26;36.80;;;22.17;;
32469;SDS011;18925;48.356;10.864;2023-01-09T02:51:11;35.78;;;22.23;;
32469;SDS011;18925;48.356;10.864;2023-01-09T02:51:51;33.70;;;21.38;;
32469;SDS011;18925;48.356;10.864;2023-01-09T02:53:51;28.98;;;19.63;;
32469;SDS011;18925;48.356;10.864;2023-01-09T02:54:33;30.40;;;18.67;;
32469;SDS011;18925;48.356;10.864;2023-01-09T02:55:57;32.90;;;21.13;;
32469;SDS011;18925;48.356;10.864;2023-01-09T02:57:04;34.20;;;20.88;;
32469;SDS011;18925;48.356;10.864;2023-01-09T02:58:04;28.80;;;19.77;;
32469;SDS011;18925;48.356;10.864;2023-01-09T03:02:50;34.40;;;20.75;;
32469;SDS011;18925;48.356;10.864;2023-01-09T03:04:54;31.92;;;20.30;;
32469;SDS011;18925;48.356;10.864;2023-01-09T03:05:36;36.25;;;21.50;;
32469;SDS011;18925;48.356;10.864;2023-01-09T03:06:18;29.75;;;19.77;;
32469;SDS011;18925;48.356;10.864;2023-01-09T03:06:56;31.77;;;21.02;;
32469;SDS011;18925;48.356;10.864;2023-01-09T03:07:37;30.40;;;20.00;;
32469;SDS011;18925;48.356;10.864;2023-01-09T03:08:30;32.80;;;20.02;;
32469;SDS011;18925;48.356;10.864;2023-01-09T03:09:07;28.65;;;19.38;;
32469;SDS011;18925;48.356;10.864;2023-01-09T03:09:44;33.13;;;20.75;;
32469;SDS011;18925;48.356;10.864;2023-01-09T03:10:24;32.08;;;20.27;;
32469;SDS011;18925;48.356;10.864;2023-01-09T03:11:00;30.58;;;19.42;;
32469;SDS011;18925;48.356;10.864;2023-01-09T03:11:36;32.13;;;19.17;;
32469;SDS011;18925;48.356;10.864;2023-01-09T03:12:15;33.97;;;19.88;;
32469;SDS011;18925;48.356;10.864;2023-01-09T03:12:50;30.88;;;18.85;;
32469;SDS011;18925;48.356;10.864;2023-01-09T03:13:23;31.33;;;19.63;;
32469;SDS011;18925;48.356;10.864;2023-01-09T03:13:59;28.38;;;18.42;;
32469;SDS011;18925;48.356;10.864;2023-01-09T03:14:37;26.58;;;19.00;;
32469;SDS011;18925;48.356;10.864;2023-01-09T03:15:11;28.65;;;18.27;;
32469;SDS011;18925;48.356;10.864;2023-01-09T03:15:45;28.60;;;17.88;;
32469;SDS011;18925;48.356;10.864;2023-01-09T03:16:20;26.30;;;18.13;;
32469;SDS011;18925;48.356;10.864;2023-01-09T03:16:56;29.83;;;18.65;;
32469;SDS011;18925;48.356;10.864;2023-01-09T03:17:39;36.00;;;22.45;;
32469;SDS011;18925;48.356;10.864;2023-01-09T03:18:12;29.90;;;19.10;;
32469;SDS011;18925;48.356;10.864;2023-01-09T03:18:45;32.25;;;19.10;;
32469;SDS011;18925;48.356;10.864;2023-01-09T03:19:18;25.15;;;17.92;;
32469;SDS011;18925;48.356;10.864;2023-01-09T03:19:52;24.98;;;17.85;;
32469;SDS011;18925;48.356;10.864;2023-01-09T03:20:25;22.77;;;17.27;;
32469;SDS011;18925;48.356;10.864;2023-01-09T03:20:56;28.15;;;18.88;;
32469;SDS011;18925;48.356;10.864;2023-01-09T03:21:27;26.80;;;18.65;;
32469;SDS011;18925;48.356;10.864;2023-01-09T03:21:58;28.75;;;18.75;;
32469;SDS011;18925;48.356;10.864;2023-01-09T03:22:29;28.83;;;17.40;;
32469;SDS011;18925;48.356;10.864;2023-01-09T03:23:01;24.38;;;17.45;;
32469;SDS011;18925;48.356;10.864;2023-01-09T03:24:21;27.92;;;16.90;;
32469;SDS011;18925;48.356;10.864;2023-01-09T03:24:52;24.73;;;16.55;;
32469;SDS011;18925;48.356;10.864;2023-01-09T03:25:23;26.20;;;16.48;;
32469;SDS011;18925;48.356;10.864;2023-01-09T03:25:55;32.72;;;16.98;;
32469;SDS011;18925;48.356;10.864;2023-01-09T03:26:25;24.67;;;16.85;;
32469;SDS011;18925;48.356;10.864;2023-01-09T03:26:58;25.08;;;16.38;;
32469;SDS011;18925;48.356;10.864;2023-01-09T03:27:29;24.10;;;17.10;;
32469;SDS011;18925;48.356;10.864;2023-01-09T03:28:02;27.40;;;16.73;;
32469;SDS011;18925;48.356;10.864;2023-01-09T03:28:35;24.27;;;17.33;;
32469;SDS011;18925;48.356;10.864;2023-01-09T03:29:06;24.45;;;16.63;;
32469;SDS011;18925;48.356;10.864;2023-01-09T03:29:38;28.27;;;17.63;;
32469;SDS011;18925;48.356;10.864;2023-01-09T03:30:09;27.90;;;17.08;;
32469;SDS011;18925;48.356;10.864;2023-01-09T03:30:40;26.23;;;17.92;;
32469;SDS011;18925;48.356;10.864;2023-01-09T03:31:11;26.33;;;17.08;;
32469;SDS011;18925;48.356;10.864;2023-01-09T03:31:41;23.60;;;15.52;;
32469;SDS011;18925;48.356;10.864;2023-01-09T03:32:12;26.17;;;15.82;;
32469;SDS011;18925;48.356;10.864;2023-01-09T03:32:43;23.40;;;15.57;;
32469;SDS011;18925;48.356;10.864;2023-01-09T03:33:13;29.88;;;16.35;;
32469;SDS011;18925;48.356;10.864;2023-01-09T03:33:44;26.70;;;16.65;;
32469;SDS011;18925;48.356;10.864;2023-01-09T03:34:15;28.52;;;15.85;;
32469;SDS011;18925;48.356;10.864;2023-01-09T03:34:45;21.83;;;16.27;;
32469;SDS011;18925;48.356;10.864;2023-01-09T03:35:16;23.50;;;15.85;;
32469;SDS011;18925;48.356;10.864;2023-01-09T03:35:47;23.30;;;15.77;;
32469;SDS011;18925;48.356;10.864;2023-01-09T03:36:18;21.88;;;15.02;;
32469;SDS011;18925;48.356;10.864;2023-01-09T03:36:52;26.13;;;15.45;;
32469;SDS011;18925;48.356;10.864;2023-01-09T03:37:23;23.40;;;14.40;;
32469;SDS011;18925;48.356;10.864;2023-01-09T03:37:53;22.25;;;14.13;;
32469;SDS011;18925;48.356;10.864;2023-01-09T03:38:24;21.73;;;14.82;;
32469;SDS011;18925;48.356;10.864;2023-01-09T03:38:55;24.25;;;15.35;;
32469;SDS011;18925;48.356;10.864;2023-01-09T03:39:25;21.98;;;14.73;;
32469;SDS011;18925;48.356;10.864;2023-01-09T03:39:56;26.38;;;16.10;;
32469;SDS011;18925;48.356;10.864;2023-01-09T03:40:27;25.60;;;15.90;;
32469;SDS011;18925;48.356;10.864;2023-01-09T03:40:59;22.58;;;14.65;;
32469;SDS011;18925;48.356;10.864;2023-01-09T03:41:30;24.55;;;15.93;;
32469;SDS011;18925;48.356;10.864;2023-01-09T03:42:00;23.05;;;13.98;;
32469;SDS011;18925;48.356;10.864;2023-01-09T03:42:31;21.98;;;14.50;;